createdAt,value
2019-03-27T00:00:47.484Z,6.70
2019-03-27T00:03:18.176Z,6.70
2019-03-27T00:05:48.854Z,6.70
2019-03-27T00:08:20.015Z,6.70
2019-03-27T00:10:50.704Z,6.70
2019-03-27T00:13:21.439Z,6.80
2019-03-27T00:15:52.134Z,6.90
2019-03-27T00:18:22.826Z,6.90
2019-03-27T00:20:53.529Z,6.90
2019-03-27T00:23:24.231Z,6.90
2019-03-27T00:25:54.921Z,6.90
2019-03-27T00:28:25.641Z,6.90
2019-03-27T00:30:56.306Z,6.80
2019-03-27T00:33:27.026Z,6.80
2019-03-27T00:35:57.792Z,6.70
2019-03-27T00:38:28.515Z,6.60
2019-03-27T00:40:59.202Z,6.60
2019-03-27T00:43:29.886Z,6.60
2019-03-27T00:46:00.687Z,6.60
2019-03-27T00:48:31.385Z,6.50
2019-03-27T00:51:02.065Z,6.50
2019-03-27T00:53:32.748Z,6.40
2019-03-27T00:56:04.479Z,6.30
2019-03-27T00:58:35.203Z,6.30
2019-03-27T01:01:14.215Z,6.30
2019-03-27T01:03:45.061Z,6.20
2019-03-27T01:06:15.832Z,6.20
2019-03-27T01:08:46.539Z,6.20
2019-03-27T01:11:17.224Z,6.30
2019-03-27T01:13:47.919Z,6.40
2019-03-27T01:16:18.602Z,6.40
2019-03-27T01:18:49.331Z,6.50
2019-03-27T01:21:20.079Z,6.50
2019-03-27T01:23:50.792Z,6.50
2019-03-27T01:26:21.492Z,6.50
2019-03-27T01:28:52.189Z,6.50
2019-03-27T01:31:22.891Z,6.50
2019-03-27T01:33:53.583Z,6.50
2019-03-27T01:36:24.267Z,6.40
2019-03-27T01:38:54.960Z,6.40
2019-03-27T01:41:25.677Z,6.40
2019-03-27T01:43:56.401Z,6.30
2019-03-27T01:46:27.102Z,6.30
2019-03-27T01:48:57.815Z,6.30
2019-03-27T01:51:28.486Z,6.20
2019-03-27T01:53:59.241Z,6.10
2019-03-27T01:56:29.949Z,6.20
2019-03-27T01:59:00.635Z,6.10
2019-03-27T02:01:31.327Z,6.20
2019-03-27T02:04:02.090Z,6.20
2019-03-27T02:06:32.833Z,6.10
2019-03-27T02:09:04.388Z,6.10
2019-03-27T02:11:35.056Z,6.00
2019-03-27T02:14:05.817Z,5.90
2019-03-27T02:16:36.470Z,5.80
2019-03-27T02:19:07.183Z,5.60
2019-03-27T02:21:38.833Z,5.50
2019-03-27T02:24:09.507Z,5.30
2019-03-27T02:26:40.183Z,5.30
2019-03-27T02:29:10.879Z,5.20
2019-03-27T02:31:41.552Z,5.00
2019-03-27T02:34:12.264Z,4.90
2019-03-27T02:36:42.928Z,4.80
2019-03-27T02:39:13.620Z,4.70
2019-03-27T02:41:44.293Z,4.60
2019-03-27T02:44:14.996Z,4.60
2019-03-27T02:46:45.686Z,4.50
2019-03-27T02:49:16.392Z,4.50
2019-03-27T02:51:47.101Z,4.40
2019-03-27T02:54:17.781Z,4.30
2019-03-27T02:56:48.448Z,4.20
2019-03-27T02:59:19.191Z,4.10
2019-03-27T03:01:49.884Z,4.10
2019-03-27T03:04:20.588Z,4.00
2019-03-27T03:06:51.258Z,4.00
2019-03-27T03:09:21.974Z,3.90
2019-03-27T03:11:52.704Z,3.90
2019-03-27T03:14:23.402Z,3.90
2019-03-27T03:16:54.090Z,3.80
2019-03-27T03:19:24.781Z,3.80
2019-03-27T03:21:55.483Z,3.80
2019-03-27T03:24:26.199Z,3.80
2019-03-27T03:26:56.867Z,3.60
2019-03-27T03:29:27.635Z,3.50
2019-03-27T03:31:58.354Z,3.40
2019-03-27T03:34:29.210Z,3.30
2019-03-27T03:36:59.907Z,3.30
2019-03-27T03:39:30.625Z,3.30
2019-03-27T03:42:01.326Z,3.40
2019-03-27T03:44:32.311Z,3.30
2019-03-27T03:47:02.986Z,3.30
2019-03-27T03:49:33.810Z,3.30
2019-03-27T03:52:04.923Z,3.20
2019-03-27T03:54:35.944Z,3.30
2019-03-27T03:57:08.217Z,3.30
2019-03-27T03:59:40.095Z,3.30
2019-03-27T04:02:10.819Z,3.30
2019-03-27T04:04:43.006Z,3.30
2019-03-27T04:07:13.713Z,3.30
2019-03-27T04:09:44.420Z,3.40
2019-03-27T04:12:15.123Z,3.50
2019-03-27T04:14:45.933Z,3.50
2019-03-27T04:17:17.940Z,3.60
2019-03-27T04:19:48.909Z,3.60
2019-03-27T04:22:19.588Z,3.70
2019-03-27T04:24:50.301Z,3.80
2019-03-27T04:27:20.978Z,3.80
2019-03-27T04:29:51.704Z,3.80
2019-03-27T04:32:22.370Z,3.80
2019-03-27T04:34:53.140Z,3.90
2019-03-27T04:37:23.827Z,4.00
2019-03-27T04:39:54.502Z,4.00
2019-03-27T04:42:25.215Z,4.10
2019-03-27T04:44:55.896Z,4.10
2019-03-27T04:47:32.399Z,4.10
2019-03-27T04:49:58.973Z,4.10
2019-03-27T04:52:29.739Z,4.10
2019-03-27T04:55:00.438Z,4.00
2019-03-27T04:57:32.111Z,4.10
2019-03-27T05:00:02.783Z,4.10
2019-03-27T05:02:33.472Z,4.10
2019-03-27T05:05:04.768Z,4.10
2019-03-27T05:07:35.471Z,4.10
2019-03-27T05:10:06.252Z,4.10
2019-03-27T05:12:38.570Z,4.10
2019-03-27T05:15:11.175Z,4.10
2019-03-27T05:17:46.272Z,4.20
2019-03-27T05:20:14.360Z,4.20
2019-03-27T05:22:45.103Z,4.10
2019-03-27T05:25:15.807Z,4.20
2019-03-27T05:27:46.509Z,4.20
2019-03-27T05:30:27.017Z,4.10
2019-03-27T05:32:58.781Z,4.10
2019-03-27T05:35:29.480Z,4.10
2019-03-27T05:38:00.172Z,4.00
2019-03-27T05:40:30.875Z,4.00
2019-03-27T05:43:02.671Z,4.00
2019-03-27T05:45:33.517Z,4.00
2019-03-27T05:48:04.383Z,3.90
2019-03-27T05:50:35.247Z,3.90
2019-03-27T05:53:05.955Z,4.00
2019-03-27T05:55:36.647Z,4.00
2019-03-27T05:58:07.358Z,4.00
2019-03-27T06:00:38.214Z,3.90
2019-03-27T06:03:08.994Z,3.90
2019-03-27T06:05:39.671Z,4.00
2019-03-27T06:08:10.640Z,4.30
2019-03-27T06:10:41.383Z,4.90
2019-03-27T06:13:12.075Z,5.50
2019-03-27T06:15:45.159Z,6.10
2019-03-27T06:18:15.197Z,6.80
2019-03-27T06:20:45.915Z,7.50
2019-03-27T06:23:16.655Z,8.30
2019-03-27T06:25:47.424Z,8.70
2019-03-27T06:28:18.151Z,9.10
2019-03-27T06:30:48.843Z,9.50
2019-03-27T06:33:19.615Z,9.80
2019-03-27T06:35:51.292Z,10.00
2019-03-27T06:38:22.299Z,10.40
2019-03-27T06:40:53.015Z,10.80
2019-03-27T06:43:23.715Z,11.60
2019-03-27T06:45:54.446Z,11.90
2019-03-27T06:48:26.394Z,11.90
2019-03-27T06:50:57.428Z,12.10
2019-03-27T06:53:28.209Z,12.30
2019-03-27T06:55:58.882Z,12.30
2019-03-27T06:58:29.611Z,12.40
2019-03-27T07:01:00.310Z,12.00
2019-03-27T07:03:31.024Z,11.70
2019-03-27T07:06:01.706Z,11.20
2019-03-27T07:08:32.404Z,11.00
2019-03-27T07:11:04.052Z,11.50
2019-03-27T07:13:34.751Z,11.60
2019-03-27T07:16:05.458Z,11.80
2019-03-27T07:18:40.471Z,12.10
2019-03-27T07:21:08.535Z,12.70
2019-03-27T07:23:39.258Z,12.90
2019-03-27T07:26:09.948Z,13.60
2019-03-27T07:28:40.671Z,13.80
2019-03-27T07:31:11.359Z,13.50
2019-03-27T07:33:42.108Z,13.00
2019-03-27T07:36:12.815Z,11.70
2019-03-27T07:38:43.559Z,11.80
2019-03-27T07:41:14.247Z,12.10
2019-03-27T07:43:44.952Z,12.30
2019-03-27T07:46:15.723Z,12.10
2019-03-27T07:48:53.657Z,11.80
2019-03-27T07:51:18.817Z,11.10
2019-03-27T07:53:49.540Z,10.70
2019-03-27T07:56:20.228Z,10.50
2019-03-27T07:58:50.943Z,11.40
2019-03-27T08:01:21.651Z,12.50
2019-03-27T08:03:52.362Z,12.80
2019-03-27T08:06:23.056Z,13.90
2019-03-27T08:08:53.843Z,14.00
2019-03-27T08:11:24.698Z,14.20
2019-03-27T08:13:55.559Z,13.30
2019-03-27T08:16:27.304Z,12.40
2019-03-27T08:19:07.376Z,11.60
2019-03-27T08:21:31.353Z,11.00
2019-03-27T08:24:02.164Z,11.80
2019-03-27T08:26:32.837Z,13.80
2019-03-27T08:29:03.599Z,15.70
2019-03-27T08:31:34.278Z,14.90
2019-03-27T08:34:05.055Z,12.60
2019-03-27T08:36:35.733Z,11.20
2019-03-27T08:39:08.518Z,10.80
2019-03-27T08:41:39.216Z,11.40
2019-03-27T08:44:09.931Z,12.20
2019-03-27T08:46:40.612Z,13.00
2019-03-27T08:49:21.667Z,13.80
2019-03-27T08:51:43.695Z,13.30
2019-03-27T08:54:14.416Z,13.10
2019-03-27T08:56:45.096Z,13.80
2019-03-27T08:59:15.803Z,13.00
2019-03-27T09:01:46.500Z,12.70
2019-03-27T09:04:17.207Z,12.60
2019-03-27T09:06:47.927Z,12.30
2019-03-27T09:09:18.620Z,12.70
2019-03-27T09:11:49.311Z,12.80
2019-03-27T09:14:19.989Z,12.20
2019-03-27T09:16:50.727Z,12.10
2019-03-27T09:19:34.530Z,13.30
2019-03-27T09:21:53.819Z,13.70
2019-03-27T09:24:24.479Z,13.30
2019-03-27T09:26:55.180Z,12.90
2019-03-27T09:29:25.865Z,13.20
2019-03-27T09:31:56.551Z,13.30
2019-03-27T09:34:27.242Z,13.10
2019-03-27T09:36:57.950Z,12.80
2019-03-27T09:39:28.701Z,12.30
2019-03-27T09:41:59.409Z,11.40
2019-03-27T09:44:30.090Z,10.80
2019-03-27T09:47:00.775Z,10.60
2019-03-27T09:49:31.468Z,10.10
2019-03-27T09:52:02.187Z,10.00
2019-03-27T09:54:32.865Z,10.20
2019-03-27T09:57:03.573Z,10.10
2019-03-27T09:59:34.277Z,10.00
2019-03-27T10:02:04.967Z,9.90
2019-03-27T10:04:35.678Z,9.90
2019-03-27T10:07:06.361Z,9.80
2019-03-27T10:09:37.079Z,9.70
2019-03-27T10:12:07.748Z,9.90
2019-03-27T10:14:38.452Z,10.20
2019-03-27T10:17:09.146Z,10.40
2019-03-27T10:19:39.808Z,10.20
2019-03-27T10:22:10.504Z,10.40
2019-03-27T10:24:41.270Z,10.90
2019-03-27T10:27:11.953Z,11.20
2019-03-27T10:29:42.699Z,11.50
2019-03-27T10:32:13.404Z,11.60
2019-03-27T10:34:44.130Z,12.80
2019-03-27T10:37:14.831Z,14.30
2019-03-27T10:39:45.520Z,16.00
2019-03-27T10:42:16.199Z,16.10
2019-03-27T10:44:46.911Z,14.20
2019-03-27T10:47:17.626Z,13.20
2019-03-27T10:49:48.339Z,13.30
2019-03-27T10:52:19.031Z,12.60
2019-03-27T10:54:49.739Z,12.00
2019-03-27T10:57:20.463Z,11.70
2019-03-27T10:59:51.200Z,12.00
2019-03-27T11:02:21.937Z,12.20
2019-03-27T11:04:52.623Z,11.60
2019-03-27T11:07:23.296Z,11.30
2019-03-27T11:09:54.003Z,11.40
2019-03-27T11:12:24.701Z,11.60
2019-03-27T11:14:55.379Z,11.80
2019-03-27T11:17:26.101Z,12.00
2019-03-27T11:19:56.759Z,12.00
2019-03-27T11:22:27.447Z,12.00
2019-03-27T11:24:58.115Z,12.10
2019-03-27T11:27:28.813Z,12.30
2019-03-27T11:29:59.492Z,12.20
2019-03-27T11:32:30.221Z,12.20
2019-03-27T11:35:00.911Z,12.20
2019-03-27T11:37:31.601Z,12.20
2019-03-27T11:40:02.294Z,12.50
2019-03-27T11:42:33.001Z,12.60
2019-03-27T11:45:03.812Z,12.60
2019-03-27T11:47:34.516Z,12.80
2019-03-27T11:50:06.000Z,12.50
2019-03-27T11:52:36.704Z,12.30
2019-03-27T11:55:07.533Z,12.60
2019-03-27T11:57:38.235Z,12.90
2019-03-27T12:00:10.125Z,14.10
2019-03-27T12:02:40.821Z,16.00
2019-03-27T12:05:11.691Z,16.70
2019-03-27T12:07:42.348Z,17.30
2019-03-27T12:10:13.287Z,16.60
2019-03-27T12:12:43.970Z,16.50
2019-03-27T12:15:17.127Z,15.50
2019-03-27T12:17:47.848Z,15.20
2019-03-27T12:20:18.515Z,14.30
2019-03-27T12:22:57.557Z,13.70
2019-03-27T12:25:21.619Z,13.60
2019-03-27T12:27:52.407Z,13.60
2019-03-27T12:30:23.118Z,13.50
2019-03-27T12:32:53.827Z,13.60
2019-03-27T12:35:24.532Z,13.80
2019-03-27T12:37:55.371Z,13.80
2019-03-27T12:40:26.052Z,13.60
2019-03-27T12:42:56.952Z,13.60
2019-03-27T12:45:27.634Z,13.90
2019-03-27T12:47:58.378Z,14.00
2019-03-27T12:50:29.061Z,14.10
2019-03-27T12:52:59.818Z,14.20
2019-03-27T12:55:30.532Z,14.30
2019-03-27T12:58:01.246Z,14.70
2019-03-27T13:00:31.936Z,14.70
2019-03-27T13:03:02.659Z,15.20
2019-03-27T13:05:33.340Z,15.50
2019-03-27T13:08:04.176Z,15.80
2019-03-27T13:10:34.844Z,15.30
2019-03-27T13:13:05.581Z,15.90
2019-03-27T13:15:36.259Z,15.60
2019-03-27T13:18:07.066Z,14.60
2019-03-27T13:20:37.757Z,14.40
2019-03-27T13:23:08.484Z,14.10
2019-03-27T13:25:39.179Z,14.10
2019-03-27T13:28:09.888Z,14.10
2019-03-27T13:30:40.578Z,14.00
2019-03-27T13:33:11.328Z,13.90
2019-03-27T13:35:42.018Z,13.90
2019-03-27T13:38:12.719Z,13.70
2019-03-27T13:40:43.395Z,13.70
2019-03-27T13:43:14.181Z,13.60
2019-03-27T13:45:45.096Z,13.40
2019-03-27T13:48:15.800Z,13.30
2019-03-27T13:50:46.491Z,13.20
2019-03-27T13:53:17.195Z,13.00
2019-03-27T13:55:47.924Z,12.90
2019-03-27T13:58:18.621Z,12.70
2019-03-27T14:00:49.347Z,12.70
2019-03-27T14:03:20.034Z,12.40
2019-03-27T14:05:50.752Z,12.20
2019-03-27T14:08:21.425Z,12.30
2019-03-27T14:10:52.107Z,12.20
2019-03-27T14:13:22.864Z,12.20
2019-03-27T14:15:53.675Z,12.20
2019-03-27T14:18:24.388Z,12.20
2019-03-27T14:20:55.103Z,12.10
2019-03-27T14:23:25.773Z,12.10
2019-03-27T14:25:56.483Z,12.10
2019-03-27T14:28:27.172Z,12.20
2019-03-27T14:30:58.779Z,12.40
2019-03-27T14:33:29.490Z,12.30
2019-03-27T14:36:00.292Z,12.50
2019-03-27T14:38:31.039Z,12.60
2019-03-27T14:41:01.737Z,12.70
2019-03-27T14:43:32.441Z,12.70
2019-03-27T14:46:03.125Z,12.80
2019-03-27T14:48:33.812Z,12.90
2019-03-27T14:51:04.551Z,13.10
2019-03-27T14:53:35.263Z,13.20
2019-03-27T14:56:06.039Z,13.30
2019-03-27T14:58:37.708Z,13.10
2019-03-27T15:01:08.411Z,13.10
2019-03-27T15:03:39.104Z,12.80
2019-03-27T15:06:09.800Z,12.70
2019-03-27T15:08:40.488Z,12.90
2019-03-27T15:11:11.170Z,12.90
2019-03-27T15:13:41.915Z,12.70
2019-03-27T15:16:12.664Z,12.80
2019-03-27T15:18:43.375Z,12.90
2019-03-27T15:21:14.117Z,12.80
2019-03-27T15:23:44.877Z,12.70
2019-03-27T15:26:15.596Z,12.70
2019-03-27T15:28:46.279Z,12.70
2019-03-27T15:31:20.611Z,12.80
2019-03-27T15:33:49.402Z,12.60
2019-03-27T15:36:20.111Z,12.60
2019-03-27T15:38:50.783Z,12.70
2019-03-27T15:41:21.488Z,12.80
2019-03-27T15:43:52.177Z,12.90
2019-03-27T15:46:22.936Z,12.70
2019-03-27T15:48:53.700Z,12.90
2019-03-27T15:51:24.423Z,12.70
2019-03-27T15:53:55.228Z,12.90
2019-03-27T15:56:25.926Z,12.70
2019-03-27T15:58:57.584Z,12.60
2019-03-27T16:01:28.340Z,12.30
2019-03-27T16:03:59.012Z,12.00
2019-03-27T16:06:30.684Z,11.90
2019-03-27T16:09:01.377Z,12.00
2019-03-27T16:11:33.956Z,12.00
2019-03-27T16:14:04.670Z,11.80
2019-03-27T16:16:35.363Z,11.60
2019-03-27T16:19:06.039Z,11.60
2019-03-27T16:21:37.863Z,11.50
2019-03-27T16:24:08.703Z,11.70
2019-03-27T16:26:39.398Z,11.80
2019-03-27T16:29:10.084Z,11.90
2019-03-27T16:31:40.787Z,11.90
2019-03-27T16:34:11.507Z,11.80
2019-03-27T16:36:42.220Z,11.70
2019-03-27T16:39:13.047Z,11.60
2019-03-27T16:41:43.818Z,11.70
2019-03-27T16:44:14.523Z,11.60
2019-03-27T16:46:45.225Z,11.60
2019-03-27T16:49:16.895Z,11.50
2019-03-27T16:51:47.591Z,11.30
2019-03-27T16:54:18.284Z,11.20
2019-03-27T16:56:49.048Z,11.20
2019-03-27T16:59:19.739Z,11.10
2019-03-27T17:01:50.439Z,11.00
2019-03-27T17:04:21.112Z,11.00
2019-03-27T17:06:51.848Z,10.90
2019-03-27T17:09:22.529Z,10.80
2019-03-27T17:11:53.226Z,10.80
2019-03-27T17:14:23.917Z,10.80
2019-03-27T17:16:54.632Z,10.70
2019-03-27T17:19:25.339Z,10.60
2019-03-27T17:21:57.507Z,10.60
2019-03-27T17:24:28.226Z,10.60
2019-03-27T17:26:58.976Z,10.50
2019-03-27T17:29:29.727Z,10.60
2019-03-27T17:32:00.853Z,10.70
2019-03-27T17:34:31.579Z,10.60
2019-03-27T17:37:02.287Z,10.70
2019-03-27T17:39:32.997Z,10.60
2019-03-27T17:42:03.728Z,10.60
2019-03-27T17:44:34.440Z,10.60
2019-03-27T17:47:05.195Z,10.60
2019-03-27T17:49:35.892Z,10.60
2019-03-27T17:52:06.609Z,10.50
2019-03-27T17:54:37.342Z,10.60
2019-03-27T17:57:08.049Z,10.50
2019-03-27T17:59:38.733Z,10.50
2019-03-27T18:02:09.448Z,10.50
2019-03-27T18:04:40.148Z,10.40
2019-03-27T18:07:10.886Z,10.40
2019-03-27T18:09:41.570Z,10.30
2019-03-27T18:12:12.297Z,10.20
2019-03-27T18:14:43.019Z,10.20
2019-03-27T18:17:13.767Z,10.30
2019-03-27T18:19:44.515Z,10.30
2019-03-27T18:22:15.262Z,10.30
2019-03-27T18:24:45.958Z,10.20
2019-03-27T18:27:16.682Z,10.20
2019-03-27T18:29:47.389Z,10.20
2019-03-27T18:32:18.150Z,10.10
2019-03-27T18:34:48.844Z,10.10
2019-03-27T18:37:19.637Z,10.20
2019-03-27T18:39:50.336Z,10.10
2019-03-27T18:42:21.057Z,10.10
2019-03-27T18:44:51.785Z,10.10
2019-03-27T18:47:22.522Z,10.00
2019-03-27T18:49:53.241Z,10.00
2019-03-27T18:52:23.960Z,9.90
2019-03-27T18:54:54.656Z,9.90
2019-03-27T18:57:25.404Z,10.00
2019-03-27T18:59:56.100Z,10.00
2019-03-27T19:02:26.805Z,10.00
2019-03-27T19:04:57.536Z,10.00
2019-03-27T19:07:28.282Z,10.10
2019-03-27T19:09:58.972Z,10.00
2019-03-27T19:12:29.707Z,10.00
2019-03-27T19:15:00.479Z,9.90
2019-03-27T19:17:31.275Z,9.90
2019-03-27T19:20:01.950Z,9.80
2019-03-27T19:22:32.752Z,9.70
2019-03-27T19:25:03.657Z,9.70
2019-03-27T19:27:34.407Z,9.70
2019-03-27T19:30:05.911Z,9.60
2019-03-27T19:32:36.883Z,9.60
2019-03-27T19:35:07.655Z,9.50
2019-03-27T19:37:38.468Z,9.60
2019-03-27T19:40:09.243Z,9.60
2019-03-27T19:42:40.048Z,9.50
2019-03-27T19:45:11.019Z,9.50
2019-03-27T19:47:41.858Z,9.60
2019-03-27T19:50:12.543Z,9.50
2019-03-27T19:52:43.287Z,9.50
2019-03-27T19:55:13.988Z,9.50
2019-03-27T19:57:44.719Z,9.40
2019-03-27T20:00:15.865Z,9.40
2019-03-27T20:02:46.680Z,9.40
2019-03-27T20:05:17.378Z,9.40
2019-03-27T20:07:48.110Z,9.40
2019-03-27T20:10:18.897Z,9.50
2019-03-27T20:12:49.624Z,9.50
2019-03-27T20:15:20.347Z,9.60
2019-03-27T20:17:51.052Z,9.60
2019-03-27T20:20:21.760Z,9.60
2019-03-27T20:22:52.530Z,9.60
2019-03-27T20:25:23.212Z,9.60
2019-03-27T20:27:54.902Z,9.60
2019-03-27T20:30:27.036Z,9.60
2019-03-27T20:32:58.106Z,9.60
2019-03-27T20:35:29.697Z,9.60
2019-03-27T20:38:00.483Z,9.50
2019-03-27T20:40:31.179Z,9.40
2019-03-27T20:43:01.888Z,9.30
2019-03-27T20:45:32.600Z,9.30
2019-03-27T20:48:03.370Z,9.20
2019-03-27T20:50:34.075Z,9.20
2019-03-27T20:53:04.877Z,9.10
2019-03-27T20:55:35.634Z,9.10
2019-03-27T20:58:06.419Z,9.10
2019-03-27T21:00:37.100Z,9.10
2019-03-27T21:03:07.927Z,9.00
2019-03-27T21:05:38.628Z,9.00
2019-03-27T21:08:09.439Z,9.10
2019-03-27T21:10:40.377Z,9.10
2019-03-27T21:13:11.188Z,9.10
2019-03-27T21:15:41.907Z,9.00
2019-03-27T21:18:12.632Z,8.90
2019-03-27T21:20:43.359Z,8.80
2019-03-27T21:23:14.117Z,8.80
2019-03-27T21:25:44.814Z,8.80
2019-03-27T21:28:15.548Z,8.70
2019-03-27T21:30:46.307Z,8.70
2019-03-27T21:33:17.044Z,8.70
2019-03-27T21:35:47.731Z,8.70
2019-03-27T21:38:18.462Z,8.70
2019-03-27T21:40:49.236Z,8.80
2019-03-27T21:43:19.976Z,8.80
2019-03-27T21:45:50.700Z,8.80
2019-03-27T21:48:21.492Z,8.80
2019-03-27T21:50:52.195Z,8.80
2019-03-27T21:53:22.996Z,8.90
2019-03-27T21:55:53.727Z,8.80
2019-03-27T21:58:24.450Z,8.80
2019-03-27T22:00:55.195Z,8.80
2019-03-27T22:03:25.908Z,8.70
2019-03-27T22:05:56.687Z,8.70
2019-03-27T22:08:27.409Z,8.80
2019-03-27T22:10:58.112Z,8.80
2019-03-27T22:13:28.844Z,8.70
2019-03-27T22:15:59.595Z,8.80
2019-03-27T22:18:30.377Z,8.80
2019-03-27T22:21:01.133Z,8.80
2019-03-27T22:23:31.845Z,8.70
2019-03-27T22:26:02.602Z,8.70
2019-03-27T22:28:33.299Z,8.70
2019-03-27T22:31:04.017Z,8.60
2019-03-27T22:33:34.699Z,8.60
2019-03-27T22:36:05.396Z,8.60
2019-03-27T22:38:36.103Z,8.60
2019-03-27T22:41:06.826Z,8.60
2019-03-27T22:43:37.499Z,8.60
2019-03-27T22:46:08.183Z,8.60
2019-03-27T22:48:38.887Z,8.60
2019-03-27T22:51:09.611Z,8.60
2019-03-27T22:53:40.385Z,8.70
2019-03-27T22:56:11.135Z,8.60
2019-03-27T22:58:41.849Z,8.60
2019-03-27T23:01:12.984Z,8.60
2019-03-27T23:03:45.383Z,8.60
2019-03-27T23:06:16.071Z,8.60
2019-03-27T23:08:46.776Z,8.50
2019-03-27T23:11:17.491Z,8.50
2019-03-27T23:13:48.219Z,8.50
2019-03-27T23:16:18.928Z,8.50
2019-03-27T23:18:49.679Z,8.50
2019-03-27T23:21:20.385Z,8.50
2019-03-27T23:23:51.096Z,8.50
2019-03-27T23:26:21.835Z,8.40
2019-03-27T23:28:52.595Z,8.50
2019-03-27T23:31:23.286Z,8.50
2019-03-27T23:33:54.080Z,8.40
2019-03-27T23:36:25.765Z,8.50
2019-03-27T23:38:56.540Z,8.50
2019-03-27T23:41:27.264Z,8.60
2019-03-27T23:43:57.971Z,8.60
2019-03-27T23:46:28.656Z,8.60
2019-03-27T23:48:59.393Z,8.60
2019-03-27T23:51:30.151Z,8.60
2019-03-27T23:54:01.787Z,8.60
2019-03-27T23:56:33.485Z,8.60
2019-03-27T23:59:04.176Z,8.60
